Terminal Aerodrome Forecast
Issued by NWS Twin Cities, MN

Home | Current Version | Previous Version | Text Only | Print | Product List | Glossary Off
Versions: 1 2 3 4 5 6 7 8 9 10 11 12 13 14 15 16 17 18 19

000
FTUS43 KMPX 162339
TAFSTC
TAF
KSTC 162339Z 1700/1724 VRB03KT 5SM BR BKN025
      TEMPO 1700/1704 3SM BR BKN015
     FM170400 VRB02KT 2SM BR BKN012
      TEMPO 1710/1714 1SM BR BKN008
     FM171600 30004KT P6SM SCT150=

USA.gov is the U.S. government's official web portal to all federal, state and local government web resources and services.